Time;durP1;ratioP1;P1;durP2;ratioP2;P2;SDS_P1;SDS_P2;PMS_P1;PMS_P2;Temp;Humidity;BMP_temperature;BMP_pressure;BME280_temperature;BME280_humidity;BME280_pressure;Samples;Min_cycle;Max_cycle;Signal;HPM_P1;HPM_P2
2022/12/02 00:01:02;;;;;;;50.45;22.98;;;;;;;-0.47;100.00;101387.56;5053670;28;20027;-70
2022/12/02 00:03:28;;;;;;;49.80;21.55;;;;;;;-0.49;100.00;101384.19;5041146;28;20032;-70
2022/12/02 00:05:56;;;;;;;48.00;21.90;;;;;;;-0.52;100.00;101381.03;5040955;28;20504;-70
2022/12/02 00:08:24;;;;;;;49.33;22.60;;;;;;;-0.58;100.00;101381.84;5054299;28;20033;-70
2022/12/02 00:10:51;;;;;;;47.92;22.63;;;;;;;-0.58;100.00;101379.09;5008976;28;20182;-70
2022/12/02 00:13:44;;;;;;;54.55;24.08;;;;;;;-0.66;100.00;101377.38;5047232;28;20052;-70
2022/12/02 00:16:19;;;;;;;57.72;25.63;;;;;;;-0.66;100.00;101371.06;5024742;28;20428;-70
2022/12/02 00:18:44;;;;;;;49.45;23.33;;;;;;;-0.70;100.00;101365.16;5056876;28;20037;-70
2022/12/02 00:21:10;;;;;;;55.22;23.92;;;;;;;-0.63;100.00;101370.66;5028683;28;20446;-70
2022/12/02 00:23:36;;;;;;;50.30;23.40;;;;;;;-0.69;100.00;101367.69;5018366;28;20028;-70
2022/12/02 00:26:01;;;;;;;47.63;22.45;;;;;;;-0.74;100.00;101364.72;5017671;28;20029;-70
2022/12/02 00:28:26;;;;;;;49.20;22.40;;;;;;;-0.72;100.00;101354.44;5016470;28;20401;-70
2022/12/02 00:30:52;;;;;;;50.67;23.27;;;;;;;-0.79;100.00;101352.72;5028361;28;20037;-70
2022/12/02 00:33:17;;;;;;;44.72;20.60;;;;;;;-0.82;100.00;101353.09;5029731;28;20021;-70
2022/12/02 00:35:43;;;;;;;48.78;22.20;;;;;;;-0.81;100.00;101352.91;5019276;28;20035;-70
2022/12/02 00:38:09;;;;;;;51.97;23.05;;;;;;;-0.85;100.00;101351.63;5038171;28;20024;-70
2022/12/02 00:40:34;;;;;;;51.00;23.25;;;;;;;-0.83;100.00;101343.25;5057482;28;20561;-70
2022/12/02 00:48:28;;;;;;;52.85;23.55;;;;;;;-0.95;100.00;101346.53;5056247;28;20483;-70
2022/12/02 00:50:53;;;;;;;51.10;24.13;;;;;;;-0.99;100.00;101338.94;5023951;28;20029;-70
2022/12/02 00:53:19;;;;;;;54.22;24.73;;;;;;;-1.01;100.00;101341.00;5040431;28;20028;-70
2022/12/02 00:55:44;;;;;;;51.03;23.80;;;;;;;-1.06;100.00;101343.47;5044091;28;20111;-70
2022/12/02 00:58:10;;;;;;;50.95;23.75;;;;;;;-1.07;100.00;101337.19;5024424;28;20025;-70
2022/12/02 01:00:35;;;;;;;48.90;24.05;;;;;;;-1.02;100.00;101342.06;5017123;28;20047;-70
2022/12/02 01:03:01;;;;;;;50.90;23.42;;;;;;;-1.09;100.00;101339.25;5024078;28;20025;-70
2022/12/02 01:05:26;;;;;;;49.65;23.48;;;;;;;-1.10;100.00;101334.84;5001488;28;20029;-70
2022/12/02 01:07:51;;;;;;;56.65;24.38;;;;;;;-1.10;100.00;101334.00;5037237;28;20452;-70
2022/12/02 01:10:17;;;;;;;53.97;23.60;;;;;;;-1.13;100.00;101330.63;5067232;28;20029;-70
2022/12/02 01:12:42;;;;;;;49.60;22.88;;;;;;;-1.12;100.00;101329.56;5040353;28;20048;-70
2022/12/02 01:15:09;;;;;;;48.70;22.98;;;;;;;-1.17;100.00;101323.91;5057031;28;20028;-70
2022/12/02 01:17:34;;;;;;;49.88;23.55;;;;;;;-1.13;100.00;101324.34;5040275;28;20036;-70
2022/12/02 01:20:00;;;;;;;47.10;22.23;;;;;;;-1.12;100.00;101326.84;5057391;28;20032;-70
2022/12/02 01:22:25;;;;;;;47.55;21.70;;;;;;;-1.17;100.00;101323.03;5053691;28;20075;-70
2022/12/02 01:24:51;;;;;;;50.08;23.88;;;;;;;-1.22;100.00;101323.66;5033895;28;20036;-70
2022/12/02 01:27:16;;;;;;;53.15;24.05;;;;;;;-1.23;100.00;101321.94;5007226;28;20028;-70
2022/12/02 01:29:41;;;;;;;49.15;23.58;;;;;;;-1.21;100.00;101322.59;5045559;28;20500;-70
2022/12/02 01:32:07;;;;;;;52.97;23.13;;;;;;;-1.23;100.00;101330.13;5021558;28;20035;-70
2022/12/02 01:34:32;;;;;;;53.38;24.02;;;;;;;-1.22;100.00;101318.19;5053327;28;20037;-70
2022/12/02 01:36:58;;;;;;;50.38;23.27;;;;;;;-1.23;100.00;101319.22;5035040;28;20037;-70
2022/12/02 01:39:23;;;;;;;46.90;21.65;;;;;;;-1.22;100.00;101323.66;5036696;28;20029;-70
2022/12/02 01:41:49;;;;;;;46.75;21.65;;;;;;;-1.24;100.00;101327.59;5030246;28;20032;-70
2022/12/02 01:44:14;;;;;;;49.05;22.88;;;;;;;-1.25;100.00;101324.03;5031873;28;20472;-70
2022/12/02 01:46:41;;;;;;;54.05;23.60;;;;;;;-1.24;100.00;101316.69;5032240;28;20397;-70
2022/12/02 01:49:06;;;;;;;48.65;22.05;;;;;;;-1.26;100.00;101316.88;5031541;28;20047;-70
2022/12/02 01:51:31;;;;;;;46.53;21.65;;;;;;;-1.27;100.00;101317.94;5035248;28;20029;-70
2022/12/02 01:53:57;;;;;;;47.40;21.17;;;;;;;-1.29;100.00;101317.28;5014622;28;20029;-70
2022/12/02 01:56:23;;;;;;;47.20;22.25;;;;;;;-1.29;100.00;101314.56;5028276;28;20028;-70
2022/12/02 01:58:49;;;;;;;47.20;23.17;;;;;;;-1.35;100.00;101310.72;5040467;28;20025;-70
2022/12/02 02:01:22;;;;;;;51.13;23.02;;;;;;;-1.32;100.00;101312.22;5021671;28;20366;-70
2022/12/02 02:03:48;;;;;;;45.05;20.88;;;;;;;-1.33;100.00;101310.56;5020160;28;20074;-70
2022/12/02 02:06:13;;;;;;;49.55;22.20;;;;;;;-1.31;100.00;101308.47;5026857;28;20028;-70
2022/12/02 02:08:39;;;;;;;40.30;20.33;;;;;;;-1.33;100.00;101310.56;5043631;28;20029;-70
2022/12/02 02:11:04;;;;;;;49.58;21.55;;;;;;;-1.36;100.00;101309.06;5043244;28;20493;-70
2022/12/02 02:13:30;;;;;;;44.97;21.67;;;;;;;-1.36;100.00;101311.78;5026904;28;20029;-70
2022/12/02 02:15:55;;;;;;;50.13;23.13;;;;;;;-1.40;100.00;101301.47;5043006;28;20496;-70
2022/12/02 02:18:21;;;;;;;46.72;22.05;;;;;;;-1.39;100.00;101309.44;5043617;28;20032;-70
2022/12/02 02:20:46;;;;;;;52.63;24.10;;;;;;;-1.41;100.00;101297.06;5059446;28;20082;-70
2022/12/02 02:23:24;;;;;;;50.08;23.60;;;;;;;-1.48;100.00;101296.97;5026876;28;20528;-70
2022/12/02 02:25:55;;;;;;;53.63;23.77;;;;;;;-1.51;100.00;101294.66;5068598;28;20106;-70
2022/12/02 02:28:23;;;;;;;50.92;22.00;;;;;;;-1.50;100.00;101292.78;5021888;28;20032;-70
2022/12/02 02:30:49;;;;;;;50.95;22.92;;;;;;;-1.48;100.00;101296.13;5026613;28;20048;-70
2022/12/02 02:33:15;;;;;;;49.85;21.92;;;;;;;-1.48;100.00;101291.53;5031972;28;20089;-70
2022/12/02 02:35:41;;;;;;;44.88;22.63;;;;;;;-1.53;100.00;101291.31;5043055;28;20119;-70
2022/12/02 02:38:07;;;;;;;48.97;22.05;;;;;;;-1.51;100.00;101281.03;5057505;28;20122;-70
2022/12/02 02:40:33;;;;;;;47.30;20.65;;;;;;;-1.51;100.00;101286.47;5053665;28;20099;-70
2022/12/02 02:42:59;;;;;;;47.85;22.08;;;;;;;-1.55;100.00;101290.66;5065483;28;20032;-70
2022/12/02 02:45:26;;;;;;;47.65;21.90;;;;;;;-1.52;100.00;101284.81;5060763;28;20167;-70
2022/12/02 02:47:51;;;;;;;47.42;21.23;;;;;;;-1.55;100.00;101278.91;5068639;28;20111;-70
2022/12/02 02:50:17;;;;;;;47.10;21.17;;;;;;;-1.58;100.00;101285.59;5041753;28;20028;-70
2022/12/02 02:52:42;;;;;;;44.33;21.45;;;;;;;-1.60;100.00;101284.94;5073524;28;20028;-70
2022/12/02 02:55:08;;;;;;;47.10;21.35;;;;;;;-1.57;100.00;101282.66;5079138;28;20036;-70
2022/12/02 02:57:33;;;;;;;46.00;20.92;;;;;;;-1.62;100.00;101282.38;5060317;28;20020;-70
2022/12/02 02:59:59;;;;;;;44.28;22.33;;;;;;;-1.65;100.00;101274.63;5063732;28;20036;-70
2022/12/02 03:02:24;;;;;;;50.33;22.67;;;;;;;-1.66;100.00;101272.94;5090616;28;20028;-70
2022/12/02 03:04:50;;;;;;;49.03;22.50;;;;;;;-1.73;100.00;101266.56;5042197;28;20016;-70
2022/12/02 03:07:15;;;;;;;44.95;22.42;;;;;;;-1.73;100.00;101260.28;5071831;28;20028;-70
2022/12/02 03:09:41;;;;;;;51.42;22.17;;;;;;;-1.77;100.00;101259.84;5042228;28;20039;-70
2022/12/02 03:12:06;;;;;;;51.97;22.02;;;;;;;-1.72;100.00;101260.09;5073503;28;20067;-70
2022/12/02 03:14:32;;;;;;;48.42;22.63;;;;;;;-1.77;100.00;101259.84;5058939;28;20064;-70
2022/12/02 03:16:58;;;;;;;49.03;22.05;;;;;;;-1.77;100.00;101253.56;5050311;28;20031;-70
2022/12/02 03:19:23;;;;;;;48.63;22.27;;;;;;;-1.76;100.00;101247.91;5061961;28;20058;-70
2022/12/02 03:21:49;;;;;;;46.65;22.05;;;;;;;-1.76;100.00;101257.94;5060329;28;20025;-70
2022/12/02 03:24:14;;;;;;;50.50;21.77;;;;;;;-1.75;100.00;101248.75;5078697;28;20024;-70
2022/12/02 03:26:40;;;;;;;43.97;20.75;;;;;;;-1.79;100.00;101251.00;5043323;28;20032;-70
2022/12/02 03:29:05;;;;;;;49.47;20.80;;;;;;;-1.75;100.00;101240.59;5060095;28;20021;-70
2022/12/02 03:31:32;;;;;;;51.72;22.27;;;;;;;-1.77;100.00;101243.50;5071305;28;20024;-70
2022/12/02 03:33:57;;;;;;;46.72;21.77;;;;;;;-1.77;100.00;101240.78;5044900;28;20051;-70
2022/12/02 03:36:23;;;;;;;51.17;21.35;;;;;;;-1.78;100.00;101241.81;5042932;28;20476;-70
2022/12/02 03:38:49;;;;;;;48.30;22.20;;;;;;;-1.84;100.00;101235.28;5047721;28;20515;-70
2022/12/02 03:41:14;;;;;;;45.60;20.10;;;;;;;-1.82;100.00;101235.06;5078335;28;20028;-70
2022/12/02 03:43:40;;;;;;;45.53;20.80;;;;;;;-1.84;100.00;101232.56;5028386;28;20028;-70
2022/12/02 03:46:05;;;;;;;49.70;22.77;;;;;;;-1.88;100.00;101228.53;5044575;28;20020;-70
2022/12/02 03:48:31;;;;;;;47.30;21.73;;;;;;;-1.89;100.00;101228.72;5055171;28;20028;-70
2022/12/02 03:50:56;;;;;;;47.47;20.88;;;;;;;-1.91;100.00;101230.81;5018240;28;20024;-70
2022/12/02 03:53:22;;;;;;;48.55;22.02;;;;;;;-1.90;100.00;101227.88;5061155;28;20020;-70
2022/12/02 03:55:47;;;;;;;42.17;20.92;;;;;;;-1.89;100.00;101223.28;5031535;28;20036;-70
2022/12/02 03:58:13;;;;;;;47.03;21.45;;;;;;;-1.86;100.00;101228.34;5061576;28;20028;-70
2022/12/02 04:00:38;;;;;;;48.22;21.48;;;;;;;-1.93;100.00;101224.69;5051882;28;20080;-70
2022/12/02 04:03:04;;;;;;;45.40;21.38;;;;;;;-1.89;100.00;101229.56;5074391;28;20088;-70
2022/12/02 04:05:29;;;;;;;46.22;20.92;;;;;;;-1.94;100.00;101221.13;5025360;28;20025;-70
2022/12/02 04:07:55;;;;;;;48.95;21.38;;;;;;;-1.94;100.00;101223.03;5057647;28;20024;-70
2022/12/02 04:10:20;;;;;;;44.63;21.08;;;;;;;-1.96;100.00;101216.91;5038587;28;20106;-70
2022/12/02 04:12:46;;;;;;;47.50;22.23;;;;;;;-1.97;100.00;101223.41;5027747;28;20039;-70
2022/12/02 04:15:11;;;;;;;45.58;20.90;;;;;;;-1.97;100.00;101216.09;5047480;28;20028;-70
2022/12/02 04:17:37;;;;;;;47.30;20.35;;;;;;;-1.94;100.00;101212.13;5057515;28;20043;-70
2022/12/02 04:20:06;;;;;;;48.33;22.23;;;;;;;-2.02;100.00;101207.66;5068121;28;20052;-70
2022/12/02 04:22:31;;;;;;;47.65;21.77;;;;;;;-2.04;100.00;101210.56;5057758;28;20033;-69
2022/12/02 04:24:58;;;;;;;51.92;23.02;;;;;;;-2.05;100.00;101208.88;5054329;28;20031;-70
2022/12/02 04:27:24;;;;;;;44.15;20.30;;;;;;;-2.05;100.00;101210.78;5062522;28;20028;-70
2022/12/02 04:29:50;;;;;;;46.92;21.27;;;;;;;-2.04;100.00;101199.66;5035554;28;20384;-70
2022/12/02 04:32:15;;;;;;;47.58;20.75;;;;;;;-2.03;100.00;101206.81;5056349;28;20082;-70
2022/12/02 04:34:41;;;;;;;48.42;21.90;;;;;;;-2.05;100.00;101198.00;5055978;28;20044;-70
2022/12/02 04:37:06;;;;;;;50.72;22.00;;;;;;;-2.05;100.00;101195.28;5074886;28;20520;-70
2022/12/02 04:39:31;;;;;;;48.85;22.02;;;;;;;-2.05;100.00;101198.00;5040813;28;20033;-70
2022/12/02 04:41:57;;;;;;;48.72;22.65;;;;;;;-2.03;100.00;101195.94;5073496;28;20024;-70
2022/12/02 04:44:22;;;;;;;46.35;21.77;;;;;;;-2.03;100.00;101192.38;5060810;28;20060;-70
2022/12/02 04:46:48;;;;;;;48.97;22.60;;;;;;;-2.02;100.00;101188.59;5049517;28;20082;-70
2022/12/02 04:49:13;;;;;;;46.28;21.98;;;;;;;-2.08;100.00;101187.50;5049899;28;20076;-70
2022/12/02 04:51:39;;;;;;;48.35;21.80;;;;;;;-2.07;100.00;101185.63;5043663;28;20081;-70
2022/12/02 04:54:04;;;;;;;51.63;21.92;;;;;;;-2.10;100.00;101189.56;5060133;28;20047;-70
2022/12/02 04:56:30;;;;;;;50.13;23.40;;;;;;;-2.11;100.00;101187.06;5077309;28;20028;-70
2022/12/02 04:58:55;;;;;;;51.03;23.00;;;;;;;-2.11;100.00;101190.63;5064038;28;20029;-70
2022/12/02 05:01:21;;;;;;;48.00;22.13;;;;;;;-2.11;100.00;101187.06;5059734;28;20030;-70
2022/12/02 05:03:46;;;;;;;48.58;21.95;;;;;;;-2.12;100.00;101190.78;5043837;28;20086;-70
2022/12/02 05:06:12;;;;;;;46.08;21.00;;;;;;;-2.14;100.00;101190.16;5057145;28;20029;-70
2022/12/02 05:08:37;;;;;;;50.05;22.63;;;;;;;-2.15;100.00;101178.41;5088232;28;20036;-70
2022/12/02 05:11:03;;;;;;;49.40;22.35;;;;;;;-2.11;100.00;101185.16;5073504;28;20025;-70
2022/12/02 05:13:28;;;;;;;50.88;23.48;;;;;;;-2.11;100.00;101177.00;5037117;28;20080;-70
2022/12/02 05:15:53;;;;;;;47.03;21.08;;;;;;;-2.07;100.00;101183.72;5049134;28;20036;-70
2022/12/02 05:18:19;;;;;;;50.30;21.77;;;;;;;-2.08;100.00;101182.06;5084981;28;20024;-70
2022/12/02 05:20:44;;;;;;;50.30;23.02;;;;;;;-2.07;100.00;101175.56;5069647;28;20036;-70
2022/12/02 05:23:12;;;;;;;50.72;22.05;;;;;;;-2.08;100.00;101182.06;5070628;28;20035;-70
2022/12/02 05:25:38;;;;;;;52.05;22.90;;;;;;;-2.14;100.00;101182.00;5073495;28;20028;-70
2022/12/02 05:28:03;;;;;;;51.67;22.98;;;;;;;-2.12;100.00;101177.19;5056975;28;20074;-70
2022/12/02 05:30:29;;;;;;;52.25;22.88;;;;;;;-2.11;100.00;101184.34;5058204;28;20512;-70
2022/12/02 05:32:54;;;;;;;50.55;22.80;;;;;;;-2.07;100.00;101181.00;5046196;28;20036;-70
2022/12/02 05:35:20;;;;;;;48.15;22.02;;;;;;;-2.10;100.00;101183.28;5034027;28;20406;-70
2022/12/02 05:37:45;;;;;;;49.58;22.48;;;;;;;-2.10;100.00;101177.84;5015748;28;20032;-70
2022/12/02 05:40:11;;;;;;;45.25;21.33;;;;;;;-2.08;100.00;101176.59;5076572;28;20044;-70
2022/12/02 05:42:36;;;;;;;50.20;23.02;;;;;;;-2.12;100.00;101180.75;5057282;28;20106;-70
2022/12/02 05:45:12;;;;;;;49.15;22.17;;;;;;;-2.14;100.00;101174.69;5037152;28;20090;-70
2022/12/02 05:47:37;;;;;;;49.05;22.73;;;;;;;-2.12;100.00;101172.56;5021164;28;20504;-70
2022/12/02 05:50:11;;;;;;;44.30;21.35;;;;;;;-2.11;100.00;101168.00;5054460;28;20036;-70
2022/12/02 05:52:37;;;;;;;52.42;22.48;;;;;;;-2.13;100.00;101173.63;5055132;28;20115;-70
2022/12/02 05:55:10;;;;;;;47.08;21.98;;;;;;;-2.14;100.00;101173.84;5053042;28;20025;-70
2022/12/02 05:57:36;;;;;;;49.60;22.83;;;;;;;-2.16;100.00;101176.75;5039646;28;20036;-70
2022/12/02 06:00:07;;;;;;;54.58;23.65;;;;;;;-2.16;100.00;101175.91;5055062;28;20381;-70
2022/12/02 06:02:35;;;;;;;48.45;21.63;;;;;;;-2.12;100.00;101178.03;5059640;28;20028;-70
2022/12/02 06:05:01;;;;;;;51.22;23.83;;;;;;;-2.12;100.00;101175.31;5045695;28;20029;-70
2022/12/02 06:07:26;;;;;;;50.13;23.25;;;;;;;-2.12;100.00;101175.31;5056677;28;20079;-70
2022/12/02 06:09:54;;;;;;;51.17;23.33;;;;;;;-2.11;100.00;101170.72;5023826;28;20523;-70
2022/12/02 06:12:20;;;;;;;49.25;23.60;;;;;;;-2.14;100.00;101179.28;5040956;28;20025;-72
2022/12/02 06:14:49;;;;;;;49.13;22.65;;;;;;;-2.17;100.00;101177.78;5059783;28;20040;-72
2022/12/02 06:17:15;;;;;;;54.83;24.48;;;;;;;-2.20;100.00;101188.19;5027009;28;20112;-70
2022/12/02 06:19:44;;;;;;;52.22;24.42;;;;;;;-2.22;100.00;101182.13;5059703;28;20023;-70
2022/12/02 06:22:16;;;;;;;51.13;23.48;;;;;;;-2.23;100.00;101183.97;5039629;28;20406;-70
2022/12/02 06:24:41;;;;;;;54.20;23.80;;;;;;;-2.19;100.00;101185.28;5043373;28;20040;-70
2022/12/02 06:27:11;;;;;;;52.88;25.08;;;;;;;-2.22;100.00;101190.28;5059166;28;20070;-70
2022/12/02 06:29:36;;;;;;;51.60;24.20;;;;;;;-2.21;100.00;101184.63;5065518;28;20433;-70
2022/12/02 06:32:02;;;;;;;58.00;24.38;;;;;;;-2.26;100.00;101185.25;5056734;28;20032;-70
2022/12/02 06:34:37;;;;;;;50.83;23.48;;;;;;;-2.30;100.00;101181.19;5059533;28;20059;-70
2022/12/02 06:37:22;;;;;;;57.58;24.42;;;;;;;-2.26;100.00;101168.03;5030584;28;20112;-70
2022/12/02 06:39:52;;;;;;;55.50;24.55;;;;;;;-2.25;100.00;101172.47;5054496;28;20186;-70
2022/12/02 06:42:30;;;;;;;51.65;23.77;;;;;;;-2.21;100.00;101162.03;5026281;28;20028;-70
2022/12/02 06:45:11;;;;;;;50.05;21.92;;;;;;;-2.22;100.00;101157.63;5047232;28;20020;-70
2022/12/02 06:48:11;;;;;;;51.92;24.48;;;;;;;-2.25;100.00;101150.69;5071844;28;20028;-70
2022/12/02 06:50:38;;;;;;;53.25;25.67;;;;;;;-2.24;100.00;101160.53;5075224;28;20036;-70
2022/12/02 06:53:21;;;;;;;52.50;25.10;;;;;;;-2.26;100.00;101151.72;5029217;28;20016;-70
2022/12/02 06:55:47;;;;;;;50.40;24.75;;;;;;;-2.24;100.00;101155.09;5017188;28;20089;-70
2022/12/02 06:58:25;;;;;;;54.92;25.48;;;;;;;-2.24;100.00;101157.81;5059496;28;20028;-70
2022/12/02 07:00:51;;;;;;;50.85;24.77;;;;;;;-2.26;100.00;101157.16;5060586;28;20029;-70
2022/12/02 07:03:29;;;;;;;52.00;24.33;;;;;;;-2.27;100.00;101150.03;5096087;28;20085;-70
2022/12/02 07:06:14;;;;;;;50.60;23.25;;;;;;;-2.28;100.00;101149.22;5059315;28;20036;-70
2022/12/02 07:08:39;;;;;;;56.22;25.30;;;;;;;-2.29;100.00;101150.22;5074889;28;20676;-70
2022/12/02 07:11:21;;;;;;;68.68;29.58;;;;;;;-2.28;100.00;101148.38;5079174;28;20036;-70
2022/12/02 07:13:46;;;;;;;68.75;31.02;;;;;;;-2.32;100.00;101145.16;5061801;28;20060;-70
2022/12/02 07:16:30;;;;;;;63.85;29.83;;;;;;;-2.33;100.00;101153.53;5075294;28;20085;-70
2022/12/02 07:18:56;;;;;;;63.55;28.17;;;;;;;-2.33;100.00;101150.81;5043379;28;20099;-70
2022/12/02 07:21:21;;;;;;;67.20;29.48;;;;;;;-2.36;100.00;101151.22;5070030;28;20028;-70
2022/12/02 07:23:47;;;;;;;66.13;28.95;;;;;;;-2.38;100.00;101153.28;5077918;28;20039;-70
2022/12/02 07:26:12;;;;;;;70.07;31.40;;;;;;;-2.38;100.00;101153.28;5062490;28;20503;-70
2022/12/02 07:28:42;;;;;;;77.30;32.08;;;;;;;-2.36;100.00;101145.78;5044122;28;20043;-71
2022/12/02 07:31:23;;;;;;;82.50;34.38;;;;;;;-2.34;100.00;101143.69;5068118;28;20388;-71
2022/12/02 07:33:48;;;;;;;91.82;40.72;;;;;;;-2.33;100.00;101148.09;5061568;28;20100;-68
2022/12/02 07:36:14;;;;;;;93.20;39.97;;;;;;;-2.33;100.00;101151.66;5075928;28;20512;-70
2022/12/02 07:38:39;;;;;;;86.53;37.13;;;;;;;-2.33;100.00;101156.28;5058349;28;20025;-70
2022/12/02 07:41:05;;;;;;;88.57;37.38;;;;;;;-2.33;100.00;101151.66;5050316;28;20036;-70
2022/12/02 07:43:31;;;;;;;80.00;34.53;;;;;;;-2.31;100.00;101149.59;5072210;28;20021;-70
2022/12/02 07:45:56;;;;;;;76.90;33.35;;;;;;;-2.28;100.00;101157.38;5061433;28;20480;-70
2022/12/02 07:48:22;;;;;;;76.72;33.80;;;;;;;-2.29;100.00;101158.38;5045187;28;20023;-70
2022/12/02 07:50:47;;;;;;;76.85;33.95;;;;;;;-2.28;100.00;101159.25;5058201;28;20032;-70
2022/12/02 07:53:13;;;;;;;77.82;34.85;;;;;;;-2.27;100.00;101160.94;5043490;28;20027;-70
2022/12/02 07:55:38;;;;;;;71.82;33.22;;;;;;;-2.25;100.00;101169.75;5061154;28;20036;-70
2022/12/02 07:58:04;;;;;;;74.38;32.28;;;;;;;-2.23;100.00;101164.09;5055803;28;20440;-70
2022/12/02 08:00:29;;;;;;;78.68;35.22;;;;;;;-2.22;100.00;101163.91;5050040;28;20036;-70
2022/12/02 08:02:55;;;;;;;75.30;33.80;;;;;;;-2.18;100.00;101165.19;5060298;28;20024;-70
2022/12/02 08:05:21;;;;;;;78.72;34.65;;;;;;;-2.19;100.00;101168.97;5058055;28;20052;-70
2022/12/02 08:07:47;;;;;;;70.93;33.50;;;;;;;-2.16;100.00;101168.56;5040407;28;20024;-70
2022/12/02 08:10:13;;;;;;;66.32;30.63;;;;;;;-2.16;100.00;101168.56;5070576;28;20083;-70
2022/12/02 08:12:38;;;;;;;70.68;31.20;;;;;;;-2.15;100.00;101170.25;5071072;28;20028;-70
2022/12/02 08:15:06;;;;;;;69.90;31.73;;;;;;;-2.14;100.00;101174.69;5050069;28;20032;-70
2022/12/02 08:17:32;;;;;;;66.15;30.27;;;;;;;-2.08;100.00;101173.88;5037979;28;20032;-70
2022/12/02 08:19:57;;;;;;;73.20;32.13;;;;;;;-2.13;100.00;101167.34;5050275;28;20035;-70
2022/12/02 08:22:23;;;;;;;66.82;31.67;;;;;;;-2.10;100.00;101175.13;5057493;28;20236;-70
2022/12/02 08:24:49;;;;;;;77.93;34.90;;;;;;;-2.07;100.00;101170.13;5046857;28;20062;-70
2022/12/02 08:27:14;;;;;;;79.32;34.58;;;;;;;-2.10;100.00;101172.41;5046679;28;20032;-70
2022/12/02 08:29:40;;;;;;;70.85;34.28;;;;;;;-2.09;100.00;101174.06;5031300;28;20043;-70
2022/12/02 08:32:05;;;;;;;77.07;35.35;;;;;;;-2.05;100.00;101176.22;5075172;28;20020;-70
2022/12/02 08:34:31;;;;;;;81.22;35.25;;;;;;;-2.03;100.00;101176.88;5074035;28;20056;-70
2022/12/02 08:36:56;;;;;;;83.18;38.00;;;;;;;-2.00;100.00;101169.38;5045090;28;20552;-70
2022/12/02 08:39:22;;;;;;;72.10;35.15;;;;;;;-1.97;100.00;101161.63;5041053;28;20074;-70
2022/12/02 08:41:47;;;;;;;79.78;36.47;;;;;;;-1.95;100.00;101159.56;5046084;28;20020;-70
2022/12/02 08:44:13;;;;;;;81.22;36.20;;;;;;;-1.89;100.00;101152.50;5086690;28;20560;-70
2022/12/02 08:46:38;;;;;;;81.60;36.40;;;;;;;-1.84;100.00;101161.75;5062889;28;20054;-70
2022/12/02 08:49:05;;;;;;;78.03;36.58;;;;;;;-1.74;100.00;101155.13;5041140;28;20036;-70
2022/12/02 08:51:30;;;;;;;75.80;32.97;;;;;;;-1.68;100.00;101166.06;5093098;28;20047;-70
2022/12/02 08:53:56;;;;;;;78.55;35.55;;;;;;;-1.59;100.00;101164.03;5056926;28;20028;-70
2022/12/02 08:56:22;;;;;;;72.57;35.00;;;;;;;-1.50;100.00;101162.03;5058936;28;20028;-70
2022/12/02 08:58:47;;;;;;;75.00;35.00;;;;;;;-1.36;100.00;101171.97;5057323;28;20033;-70
2022/12/02 09:01:13;;;;;;;80.03;36.42;;;;;;;-1.27;100.00;101167.19;5058820;28;20024;-70
2022/12/02 09:03:38;;;;;;;81.85;35.08;;;;;;;-1.16;100.00;101170.19;5043987;28;20027;-70
2022/12/02 09:06:04;;;;;;;74.07;35.05;;;;;;;-1.02;100.00;101170.28;5042164;28;20032;-71
2022/12/02 09:08:29;;;;;;;80.00;35.75;;;;;;;-0.93;100.00;101163.59;5056211;28;20081;-70
2022/12/02 09:10:55;;;;;;;72.30;33.95;;;;;;;-0.78;100.00;101160.72;5064558;28;20024;-70
2022/12/02 09:13:20;;;;;;;74.40;34.10;;;;;;;-0.68;100.00;101164.75;5081169;28;20028;-71
2022/12/02 09:15:46;;;;;;;74.57;32.95;;;;;;;-0.58;100.00;101161.66;5062868;28;20028;-70
2022/12/02 09:18:12;;;;;;;81.75;36.15;;;;;;;-0.48;100.00;101159.38;5081208;28;20035;-70
2022/12/02 09:20:37;;;;;;;75.35;32.85;;;;;;;-0.35;100.00;101155.84;5076764;28;20447;-70
2022/12/02 09:23:02;;;;;;;75.05;34.03;;;;;;;-0.24;100.00;101143.47;5090377;28;20084;-70
2022/12/02 09:25:28;;;;;;;74.00;32.97;;;;;;;-0.12;100.00;101140.97;5059449;28;20024;-71
2022/12/02 09:27:53;;;;;;;73.82;33.17;;;;;;;-0.03;100.00;101140.59;5068955;28;20083;-71
2022/12/02 09:30:19;;;;;;;74.35;34.53;;;;;;;0.08;100.00;101141.81;5045357;28;20036;-70
2022/12/02 09:32:45;;;;;;;75.50;34.40;;;;;;;0.18;100.00;101134.06;5077503;28;20032;-70
2022/12/02 09:35:10;;;;;;;71.78;33.22;;;;;;;0.30;100.00;101141.63;5079345;28;20048;-70
2022/12/02 09:37:36;;;;;;;75.85;32.35;;;;;;;0.38;100.00;101144.97;5060661;28;20086;-70
2022/12/02 09:40:01;;;;;;;78.25;34.55;;;;;;;0.48;100.00;101154.66;5060210;28;20416;-70
2022/12/02 09:42:27;;;;;;;87.20;36.60;;;;;;;0.52;100.00;101162.19;5043858;28;20031;-70
2022/12/02 09:44:52;;;;;;;85.38;36.80;;;;;;;0.63;100.00;101169.75;5043410;28;20020;-71
2022/12/02 09:47:18;;;;;;;83.93;35.65;;;;;;;0.73;100.00;101163.03;5051392;28;20394;-70
2022/12/02 09:49:43;;;;;;;87.53;37.40;;;;;;;0.81;100.00;101160.06;5046639;28;20027;-70
2022/12/02 09:52:18;;;;;;;78.72;35.80;;;;;;;0.91;100.00;101154.97;5060205;28;20032;-70
2022/12/02 09:54:45;;;;;;;83.22;36.05;;;;;;;1.00;100.00;101159.16;5057200;28;20028;-71
2022/12/02 09:57:12;;;;;;;70.93;32.85;;;;;;;1.10;100.00;101154.09;5051225;28;20025;-71
2022/12/02 09:59:38;;;;;;;71.35;33.63;;;;;;;1.23;100.00;101161.41;5039908;28;20362;-71
2022/12/02 10:02:04;;;;;;;70.80;32.72;;;;;;;1.32;100.00;101151.06;5051779;28;20083;-71
2022/12/02 10:04:29;;;;;;;71.47;33.40;;;;;;;1.39;100.00;101151.84;5045368;28;20024;-71
2022/12/02 10:06:55;;;;;;;72.13;33.35;;;;;;;1.47;100.00;101157.06;5043285;28;20043;-71
2022/12/02 10:09:29;;;;;;;72.25;32.08;;;;;;;1.59;100.00;101159.13;5062347;28;20024;-71
2022/12/02 10:11:55;;;;;;;77.20;33.90;;;;;;;1.67;100.00;101159.72;5044379;28;20040;-71
2022/12/02 10:14:20;;;;;;;78.32;35.35;;;;;;;1.73;100.00;101152.53;5010943;28;20024;-71
2022/12/02 10:16:46;;;;;;;76.38;34.78;;;;;;;1.82;100.00;101156.69;5055286;28;20484;-72
2022/12/02 10:19:15;;;;;;;76.47;36.25;;;;;;;1.85;100.00;101149.94;5043085;28;20027;-71
2022/12/02 10:21:41;;;;;;;76.50;33.72;;;;;;;1.91;100.00;101149.88;5078798;28;20500;-71
2022/12/02 10:24:08;;;;;;;77.60;34.17;;;;;;;1.93;100.00;101150.50;5063054;28;20019;-71
2022/12/02 10:26:45;;;;;;;79.93;35.28;;;;;;;1.96;100.00;101152.78;5060180;28;20100;-71
2022/12/02 10:29:15;;;;;;;80.68;34.42;;;;;;;2.00;100.00;101155.91;5039804;28;20380;-71
2022/12/02 10:31:52;;;;;;;86.28;36.45;;;;;;;2.05;100.00;101155.28;5071411;28;20029;-71
2022/12/02 10:34:21;;;;;;;79.88;36.97;;;;;;;2.08;100.00;101144.69;5042995;28;20049;-71
2022/12/02 10:36:46;;;;;;;84.65;36.33;;;;;;;2.07;100.00;101153.16;5058394;28;20043;-71
2022/12/02 10:39:29;;;;;;;89.05;36.78;;;;;;;2.12;100.00;101150.59;5056104;28;20032;-71
2022/12/02 10:42:03;;;;;;;98.85;41.13;;;;;;;2.13;100.00;101158.56;5079150;28;20111;-71
2022/12/02 10:44:29;;;;;;;88.35;38.22;;;;;;;2.17;100.00;101150.75;5097373;28;20488;-71
2022/12/02 10:47:11;;;;;;;90.80;39.80;;;;;;;2.23;100.00;101144.38;5059129;28;20101;-71
2022/12/02 10:49:37;;;;;;;94.20;38.97;;;;;;;2.23;100.00;101139.75;5075018;28;20029;-71
2022/12/02 10:52:08;;;;;;;93.82;40.55;;;;;;;2.28;100.00;101143.69;5059201;28;20284;-71
2022/12/02 10:54:34;;;;;;;85.57;38.55;;;;;;;2.30;100.00;101136.94;5059623;28;20034;-71
2022/12/02 10:57:00;;;;;;;85.22;38.67;;;;;;;2.33;100.00;101128.25;5046257;28;20032;-71
2022/12/02 10:59:25;;;;;;;85.35;38.50;;;;;;;2.35;100.00;101128.03;5079342;28;20047;-71
2022/12/02 11:01:51;;;;;;;81.55;35.78;;;;;;;2.35;100.00;101131.63;5058750;28;20485;-71
2022/12/02 11:04:16;;;;;;;84.30;37.38;;;;;;;2.36;100.00;101119.59;5076329;28;20028;-71
2022/12/02 11:06:43;;;;;;;85.57;38.30;;;;;;;2.40;100.00;101115.34;5059209;28;20063;-71